Time;durP1;ratioP1;P1;durP2;ratioP2;P2;SDS_P1;SDS_P2;PMS_P1;PMS_P2;Temp;Humidity;BMP_temperature;BMP_pressure;BME280_temperature;BME280_humidity;BME280_pressure;Samples;Min_cycle;Max_cycle;Signal;HPM_P1;HPM_P2
2024/01/15 06:32:50;;;;;;;4.80;1.55;;;;;;;;;;4908261;29;20573;-82
2024/01/15 06:35:16;;;;;;;2.67;1.83;;;;;;;;;;4910317;29;20110;-82
2024/01/15 06:37:42;;;;;;;2.60;1.55;;;;;;;;;;4891484;29;20048;-82
2024/01/15 07:06:45;;;;;;;2.65;1.45;;;;;;;;;;4914797;29;20120;-82
2024/01/15 07:09:59;;;;;;;;;;;;;;;;;;;;;
2024/01/15 07:15:54;;;;;;;6.75;2.08;;;;;;;;;;4909845;29;20055;-82
2024/01/15 07:18:36;;;;;;;;;;;;;;;;;;;;;
2024/01/15 07:21:22;;;;;;;;;;;;;;;;;;;;;
2024/01/15 07:24:09;;;;;;;21.30;2.60;;;;;;;;;;4907291;29;20662;-83
2024/01/15 07:26:56;;;;;;;3.28;1.83;;;;;;;;;;4898852;29;20048;-82
2024/01/15 07:30:08;;;;;;;;;;;;;;;;;;;;;
2024/01/15 07:32:24;;;;;;;9.05;2.30;;;;;;;;;;4903701;29;20159;-82
2024/01/15 07:35:08;;;;;;;4.68;3.20;;;;;;;;;;4895926;29;20047;-82
2024/01/15 07:41:08;;;;;;;;;;;;;;;;;;;;;
2024/01/15 07:46:53;;;;;;;4.82;2.00;;;;;;;;;;4905228;29;20040;-83
2024/01/15 07:53:03;;;;;;;3.55;1.50;;;;;;;;;;4896667;29;20067;-82
2024/01/15 08:05:10;;;;;;;3.47;2.63;;;;;;;;;;4808696;29;20046;-83
2024/01/15 08:20:57;;;;;;;;;;;;;;;;;;;;;
2024/01/15 08:23:38;;;;;;;2.70;1.50;;;;;;;;;;4901989;29;20074;-82
2024/01/15 08:26:27;;;;;;;7.20;2.13;;;;;;;;;;4893626;29;20039;-82
2024/01/15 08:29:18;;;;;;;4.57;2.55;;;;;;;;;;4891851;29;20068;-83
2024/01/15 08:35:28;;;;;;;6.15;3.20;;;;;;;;;;4892838;29;20085;-82
2024/01/15 08:38:27;;;;;;;3.22;1.60;;;;;;;;;;4861951;29;20052;-83
2024/01/15 08:41:39;;;;;;;;;;;;;;;;;;;;;
2024/01/15 08:50:21;;;;;;;3.53;1.77;;;;;;;;;;4867660;29;20102;-82
2024/01/15 09:02:38;;;;;;;8.43;2.42;;;;;;;;;;4841690;29;20546;-82
2024/01/15 09:05:15;;;;;;;3.88;1.98;;;;;;;;;;4830451;29;20768;-82
2024/01/15 09:08:15;;;;;;;5.43;3.05;;;;;;;;;;4814250;29;20125;-82
2024/01/15 09:14:09;;;;;;;7.85;3.58;;;;;;;;;;4833923;29;20053;-82
2024/01/15 09:16:59;;;;;;;;;;;;;;;;;;;;;
2024/01/15 09:19:49;;;;;;;3.70;1.73;;;;;;;;;;4842390;29;20055;-83
2024/01/15 09:38:05;;;;;;;6.13;3.08;;;;;;;;;;4919757;28;20052;-83
2024/01/15 09:43:37;;;;;;;4.20;2.00;;;;;;;;;;4925972;29;20044;-82
2024/01/15 09:46:03;;;;;;;6.63;2.33;;;;;;;;;;4908631;29;20387;-82
2024/01/15 09:48:29;;;;;;;4.80;1.50;;;;;;;;;;4897228;29;20565;-83
2024/01/15 09:50:58;;;;;;;4.70;1.10;;;;;;;;;;4902298;29;20063;-82
2024/01/15 09:53:25;;;;;;;4.38;2.00;;;;;;;;;;4901568;29;20509;-82
2024/01/15 09:55:53;;;;;;;6.40;2.40;;;;;;;;;;4898717;29;20188;-82
2024/01/15 09:58:20;;;;;;;3.97;2.40;;;;;;;;;;4906164;29;20044;-82
2024/01/15 10:00:47;;;;;;;3.28;2.03;;;;;;;;;;4915173;29;20158;-80
2024/01/15 10:03:13;;;;;;;4.53;2.28;;;;;;;;;;4920836;29;20477;-80
2024/01/15 10:05:39;;;;;;;5.40;2.42;;;;;;;;;;4916944;29;20074;-80
2024/01/15 10:08:06;;;;;;;4.90;2.47;;;;;;;;;;4925488;29;20036;-80
2024/01/15 10:10:32;;;;;;;8.32;3.22;;;;;;;;;;4903985;29;20763;-80
2024/01/15 10:13:00;;;;;;;4.25;2.10;;;;;;;;;;4925025;29;20044;-80
2024/01/15 10:15:26;;;;;;;6.97;2.33;;;;;;;;;;4928209;29;20063;-79
2024/01/15 10:17:52;;;;;;;3.78;2.50;;;;;;;;;;4925410;29;20039;-80
2024/01/15 10:20:18;;;;;;;5.07;2.08;;;;;;;;;;4920503;29;20058;-79
2024/01/15 10:22:48;;;;;;;5.80;2.17;;;;;;;;;;4914732;29;20095;-80
2024/01/15 10:25:15;;;;;;;5.75;2.03;;;;;;;;;;4919393;29;20135;-80
2024/01/15 10:27:41;;;;;;;3.95;2.00;;;;;;;;;;4927786;29;20047;-79
2024/01/15 10:30:08;;;;;;;3.90;2.60;;;;;;;;;;4909711;29;20402;-79
2024/01/15 10:32:34;;;;;;;4.30;1.95;;;;;;;;;;4916561;29;20519;-81
2024/01/15 10:35:00;;;;;;;7.50;1.95;;;;;;;;;;4910926;29;20138;-79
2024/01/15 10:37:27;;;;;;;3.22;2.30;;;;;;;;;;4922988;29;20056;-79
2024/01/15 10:39:53;;;;;;;4.78;2.47;;;;;;;;;;4930922;29;20043;-80
2024/01/15 10:42:19;;;;;;;4.15;2.35;;;;;;;;;;4928328;29;20043;-79
2024/01/15 10:44:48;;;;;;;4.13;2.60;;;;;;;;;;4924601;29;20164;-79
2024/01/15 10:47:15;;;;;;;4.28;2.35;;;;;;;;;;4922225;29;20036;-79
2024/01/15 10:49:41;;;;;;;4.90;1.58;;;;;;;;;;4900893;29;20107;-79
2024/01/15 10:52:07;;;;;;;4.93;2.33;;;;;;;;;;4906397;29;20055;-79
2024/01/15 10:54:34;;;;;;;5.07;2.53;;;;;;;;;;4931074;29;20401;-80
2024/01/15 10:57:00;;;;;;;3.50;1.80;;;;;;;;;;4917858;29;20043;-80
2024/01/15 10:59:30;;;;;;;3.47;1.98;;;;;;;;;;4926862;29;20039;-80
2024/01/15 11:01:56;;;;;;;4.20;2.63;;;;;;;;;;4932343;29;20102;-80
2024/01/15 11:04:23;;;;;;;2.72;1.98;;;;;;;;;;4921651;29;20040;-81
2024/01/15 11:06:51;;;;;;;4.65;2.65;;;;;;;;;;4918118;29;20044;-80
2024/01/15 11:09:18;;;;;;;4.30;2.13;;;;;;;;;;4919506;29;20040;-81
2024/01/15 11:11:45;;;;;;;6.60;3.45;;;;;;;;;;4920959;29;20045;-80
2024/01/15 11:14:11;;;;;;;4.93;2.00;;;;;;;;;;4906765;29;20091;-80
2024/01/15 11:16:56;;;;;;;8.75;3.70;;;;;;;;;;4919013;29;20058;-85
2024/01/15 11:19:23;;;;;;;6.32;3.28;;;;;;;;;;4910306;29;20717;-81
2024/01/15 11:21:49;;;;;;;5.60;2.85;;;;;;;;;;4907451;29;20406;-81
2024/01/15 11:24:37;;;;;;;4.32;2.22;;;;;;;;;;4917360;29;20078;-81
2024/01/15 11:27:03;;;;;;;9.63;2.67;;;;;;;;;;4906477;29;20047;-80
2024/01/15 11:29:31;;;;;;;5.80;2.58;;;;;;;;;;4903910;29;20048;-81
2024/01/15 11:31:58;;;;;;;10.70;3.70;;;;;;;;;;4931323;29;20851;-81
2024/01/15 11:34:43;;;;;;;5.25;3.22;;;;;;;;;;4905501;29;20046;-80
2024/01/15 11:37:09;;;;;;;11.35;4.70;;;;;;;;;;4900189;29;20063;-82
2024/01/15 11:39:42;;;;;;;4.85;2.50;;;;;;;;;;4922393;29;20047;-81
2024/01/15 11:42:10;;;;;;;7.65;3.88;;;;;;;;;;4918896;29;20044;-81
2024/01/15 11:44:37;;;;;;;4.72;2.13;;;;;;;;;;4915719;29;20724;-80
2024/01/15 11:47:04;;;;;;;8.63;3.80;;;;;;;;;;4924765;29;20048;-80
2024/01/15 11:49:49;;;;;;;6.68;3.25;;;;;;;;;;4919410;29;20044;-80
2024/01/15 11:52:17;;;;;;;4.45;2.72;;;;;;;;;;4930200;29;20055;-78
2024/01/15 11:54:46;;;;;;;5.07;2.58;;;;;;;;;;4926320;29;20126;-78
2024/01/15 11:57:19;;;;;;;3.83;1.90;;;;;;;;;;4932333;29;20055;-78
2024/01/15 11:59:45;;;;;;;11.10;3.38;;;;;;;;;;4917205;29;20515;-78
2024/01/15 12:02:12;;;;;;;6.95;3.80;;;;;;;;;;4909887;29;20401;-79
2024/01/15 12:04:39;;;;;;;4.50;3.22;;;;;;;;;;4918136;29;20036;-79
2024/01/15 12:07:05;;;;;;;6.30;2.92;;;;;;;;;;4917399;29;20116;-79
2024/01/15 12:09:31;;;;;;;6.35;3.30;;;;;;;;;;4921611;29;20120;-79
2024/01/15 12:12:02;;;;;;;5.05;2.45;;;;;;;;;;4927979;29;20061;-79
2024/01/15 12:14:29;;;;;;;7.05;3.28;;;;;;;;;;4924612;29;20044;-80
2024/01/15 12:16:55;;;;;;;6.47;3.25;;;;;;;;;;4923160;29;20048;-80
2024/01/15 12:19:22;;;;;;;4.65;2.70;;;;;;;;;;4924964;29;20140;-80
2024/01/15 12:21:48;;;;;;;7.22;4.18;;;;;;;;;;4917640;29;20092;-80
2024/01/15 12:24:14;;;;;;;5.75;3.78;;;;;;;;;;4901407;29;20040;-80
2024/01/15 12:26:40;;;;;;;3.58;2.00;;;;;;;;;;4916433;29;20139;-80
2024/01/15 12:29:07;;;;;;;4.47;2.33;;;;;;;;;;4917420;29;20036;-80
2024/01/15 12:31:33;;;;;;;5.18;2.85;;;;;;;;;;4917002;29;20059;-80
2024/01/15 12:33:59;;;;;;;5.32;2.80;;;;;;;;;;4918139;29;20040;-80
2024/01/15 12:36:25;;;;;;;4.28;2.45;;;;;;;;;;4924136;29;20048;-80
2024/01/15 12:38:51;;;;;;;2.92;1.55;;;;;;;;;;4917825;29;20425;-81
2024/01/15 12:41:17;;;;;;;3.90;2.58;;;;;;;;;;4920658;29;20067;-80
2024/01/15 12:43:43;;;;;;;2.67;1.95;;;;;;;;;;4924088;29;20042;-80
2024/01/15 12:46:09;;;;;;;3.80;2.10;;;;;;;;;;4919216;29;20078;-80
2024/01/15 12:48:35;;;;;;;4.32;2.65;;;;;;;;;;4914695;29;20036;-81
2024/01/15 12:51:01;;;;;;;7.03;2.88;;;;;;;;;;4908266;29;20047;-81
2024/01/15 12:53:27;;;;;;;7.05;2.47;;;;;;;;;;4917295;29;20044;-80
2024/01/15 12:55:53;;;;;;;6.82;2.65;;;;;;;;;;4922842;29;20044;-81
2024/01/15 12:58:19;;;;;;;4.00;2.67;;;;;;;;;;4901808;29;20146;-81
2024/01/15 13:00:46;;;;;;;3.03;2.17;;;;;;;;;;4918783;29;20043;-81
2024/01/15 13:03:13;;;;;;;5.13;2.45;;;;;;;;;;4925414;29;20040;-81
2024/01/15 13:05:40;;;;;;;10.38;3.05;;;;;;;;;;4900397;29;20050;-80
2024/01/15 13:08:07;;;;;;;8.18;3.13;;;;;;;;;;4922446;29;20044;-81
2024/01/15 13:10:33;;;;;;;5.00;2.88;;;;;;;;;;4903699;29;20044;-81
2024/01/15 13:12:59;;;;;;;5.88;2.30;;;;;;;;;;4919592;29;20121;-80
2024/01/15 13:15:25;;;;;;;4.10;1.85;;;;;;;;;;4920378;29;20491;-80
2024/01/15 13:17:51;;;;;;;10.38;3.40;;;;;;;;;;4930305;29;20059;-81
2024/01/15 13:20:17;;;;;;;3.00;1.63;;;;;;;;;;4910053;29;20039;-80
2024/01/15 13:22:44;;;;;;;6.22;1.67;;;;;;;;;;4907758;29;20047;-80
2024/01/15 13:25:11;;;;;;;4.57;2.45;;;;;;;;;;4920789;29;20028;-80
2024/01/15 13:27:37;;;;;;;6.47;3.00;;;;;;;;;;4919919;29;20424;-80
2024/01/15 13:30:03;;;;;;;3.08;2.35;;;;;;;;;;4926845;29;20483;-80
2024/01/15 13:32:30;;;;;;;3.33;2.85;;;;;;;;;;4925897;29;20154;-80
2024/01/15 13:34:56;;;;;;;8.07;3.33;;;;;;;;;;4920954;29;20042;-80
2024/01/15 13:37:25;;;;;;;3.70;2.30;;;;;;;;;;4925437;29;20066;-81
2024/01/15 13:39:52;;;;;;;3.05;2.08;;;;;;;;;;4926566;29;20044;-80
2024/01/15 13:42:18;;;;;;;7.80;3.42;;;;;;;;;;4904959;29;20074;-80
2024/01/15 13:44:44;;;;;;;9.85;3.63;;;;;;;;;;4914591;29;20036;-80
2024/01/15 13:47:10;;;;;;;6.25;3.83;;;;;;;;;;4907672;29;20050;-80
2024/01/15 13:49:36;;;;;;;3.20;2.17;;;;;;;;;;4923291;29;20055;-80
2024/01/15 13:52:03;;;;;;;2.53;2.05;;;;;;;;;;4922422;29;20080;-80
2024/01/15 13:54:30;;;;;;;7.68;3.78;;;;;;;;;;4914032;29;20040;-78
2024/01/15 13:56:56;;;;;;;6.30;2.50;;;;;;;;;;4914278;29;20083;-79
2024/01/15 13:59:22;;;;;;;4.68;2.13;;;;;;;;;;4926390;29;20071;-79
2024/01/15 14:01:48;;;;;;;7.63;2.47;;;;;;;;;;4924577;29;20523;-79
2024/01/15 14:04:14;;;;;;;6.43;4.20;;;;;;;;;;4911136;29;20067;-79
2024/01/15 14:06:40;;;;;;;4.65;1.83;;;;;;;;;;4897373;29;20084;-80
2024/01/15 14:09:09;;;;;;;6.57;2.67;;;;;;;;;;4921869;29;20048;-79
2024/01/15 14:11:36;;;;;;;2.83;1.65;;;;;;;;;;4926017;29;20765;-80
2024/01/15 14:14:02;;;;;;;3.17;1.40;;;;;;;;;;4924780;29;20074;-80
2024/01/15 14:16:28;;;;;;;0.65;0.65;;;;;;;;;;4920330;29;20127;-79
2024/01/15 14:18:54;;;;;;;0.68;0.47;;;;;;;;;;4921632;29;20111;-79
2024/01/15 14:21:20;;;;;;;5.00;1.90;;;;;;;;;;4921618;29;20053;-79
2024/01/15 14:23:46;;;;;;;2.08;1.25;;;;;;;;;;4924145;29;20119;-79
2024/01/15 14:26:12;;;;;;;5.43;3.10;;;;;;;;;;4928175;29;20052;-79
2024/01/15 14:28:38;;;;;;;7.03;2.72;;;;;;;;;;4919888;29;20074;-78
2024/01/15 14:31:05;;;;;;;6.13;1.45;;;;;;;;;;4913110;29;20044;-79
2024/01/15 14:33:31;;;;;;;3.53;1.45;;;;;;;;;;4920996;29;20039;-78
2024/01/15 14:35:57;;;;;;;2.55;1.88;;;;;;;;;;4917311;29;20049;-79
2024/01/15 14:38:23;;;;;;;9.98;3.50;;;;;;;;;;4916104;29;20494;-80
2024/01/15 14:40:50;;;;;;;3.65;2.17;;;;;;;;;;4924803;29;20806;-79
2024/01/15 14:43:16;;;;;;;8.38;3.17;;;;;;;;;;4903858;29;20037;-79
2024/01/15 14:45:43;;;;;;;6.95;2.60;;;;;;;;;;4883104;29;20049;-78
2024/01/15 14:48:09;;;;;;;15.15;2.38;;;;;;;;;;4899509;29;20730;-80
2024/01/15 14:50:35;;;;;;;8.07;3.00;;;;;;;;;;4895984;29;20475;-79
2024/01/15 14:53:01;;;;;;;5.95;3.00;;;;;;;;;;4913251;29;20040;-79
2024/01/15 14:55:27;;;;;;;4.35;1.13;;;;;;;;;;4913293;29;20044;-78
2024/01/15 14:57:53;;;;;;;4.68;1.35;;;;;;;;;;4910802;29;20040;-78
2024/01/15 15:00:20;;;;;;;4.55;2.10;;;;;;;;;;4908306;29;20080;-78
2024/01/15 15:02:47;;;;;;;5.22;2.45;;;;;;;;;;4909439;29;20040;-78
2024/01/15 15:05:13;;;;;;;5.97;2.28;;;;;;;;;;4904507;29;20418;-78
2024/01/15 15:07:39;;;;;;;6.93;2.38;;;;;;;;;;4912148;29;20044;-79
2024/01/15 15:10:05;;;;;;;1.85;1.17;;;;;;;;;;4913927;29;20041;-79
2024/01/15 15:12:32;;;;;;;5.93;1.73;;;;;;;;;;4913286;29;20052;-79
2024/01/15 15:14:58;;;;;;;4.78;2.30;;;;;;;;;;4909075;29;20054;-78
2024/01/15 15:17:24;;;;;;;5.68;1.67;;;;;;;;;;4910056;29;20044;-78
2024/01/15 15:19:53;;;;;;;4.10;1.73;;;;;;;;;;4916077;29;20044;-78
2024/01/15 15:22:19;;;;;;;6.28;2.33;;;;;;;;;;4898302;29;20044;-78
2024/01/15 15:24:45;;;;;;;4.20;2.72;;;;;;;;;;4915332;29;20087;-78
2024/01/15 15:27:11;;;;;;;3.65;2.75;;;;;;;;;;4910681;29;20040;-78
2024/01/15 15:29:37;;;;;;;4.50;2.03;;;;;;;;;;4916128;29;20051;-78
2024/01/15 15:32:03;;;;;;;5.95;3.40;;;;;;;;;;4915734;29;20048;-78
2024/01/15 15:34:29;;;;;;;4.65;2.15;;;;;;;;;;4911734;29;20048;-78
2024/01/15 15:36:55;;;;;;;5.28;2.75;;;;;;;;;;4886244;29;20044;-78
2024/01/15 15:39:21;;;;;;;5.90;2.88;;;;;;;;;;4905494;29;20068;-78
2024/01/15 15:41:48;;;;;;;3.40;2.50;;;;;;;;;;4915092;29;20048;-78
2024/01/15 15:44:16;;;;;;;8.18;3.90;;;;;;;;;;4898190;29;20210;-78
2024/01/15 15:46:43;;;;;;;6.70;3.70;;;;;;;;;;4904779;29;20391;-78
2024/01/15 15:49:09;;;;;;;11.95;3.53;;;;;;;;;;4914448;29;20143;-80
2024/01/15 15:51:38;;;;;;;5.50;2.92;;;;;;;;;;4900525;29;20843;-79
2024/01/15 15:54:07;;;;;;;6.20;3.05;;;;;;;;;;4909835;29;20036;-80
2024/01/15 15:56:42;;;;;;;7.25;3.08;;;;;;;;;;4905451;29;20547;-80
2024/01/15 15:59:09;;;;;;;8.98;4.55;;;;;;;;;;4898863;29;20049;-80
2024/01/15 16:01:35;;;;;;;4.88;3.40;;;;;;;;;;4910660;29;20149;-80
2024/01/15 16:04:01;;;;;;;2.65;1.83;;;;;;;;;;4914384;29;20804;-80
2024/01/15 16:06:27;;;;;;;8.88;3.70;;;;;;;;;;4900777;29;20036;-80
2024/01/15 16:08:53;;;;;;;11.52;4.45;;;;;;;;;;4905458;29;20482;-80
2024/01/15 16:11:19;;;;;;;4.65;2.92;;;;;;;;;;4905687;29;20044;-80
2024/01/15 16:13:45;;;;;;;9.98;3.33;;;;;;;;;;4913070;29;20044;-79
2024/01/15 16:16:11;;;;;;;4.18;2.22;;;;;;;;;;4905090;29;20565;-80
2024/01/15 16:18:37;;;;;;;6.55;3.47;;;;;;;;;;4915489;29;20099;-80
2024/01/15 16:21:04;;;;;;;5.85;2.88;;;;;;;;;;4899526;29;20131;-79
2024/01/15 16:23:30;;;;;;;6.50;3.60;;;;;;;;;;4911561;29;20048;-80
2024/01/15 16:25:56;;;;;;;8.10;3.97;;;;;;;;;;4913742;29;20037;-80
2024/01/15 16:28:22;;;;;;;11.50;4.35;;;;;;;;;;4912042;29;20151;-79
2024/01/15 16:30:48;;;;;;;6.05;3.85;;;;;;;;;;4916041;29;20114;-80
2024/01/15 16:33:14;;;;;;;5.75;2.75;;;;;;;;;;4908702;29;20048;-81
2024/01/15 16:35:40;;;;;;;3.17;1.80;;;;;;;;;;4911678;29;20052;-79
2024/01/15 16:38:06;;;;;;;10.57;4.80;;;;;;;;;;4910058;29;20055;-81
2024/01/15 16:40:32;;;;;;;6.03;2.90;;;;;;;;;;4911311;29;20422;-82
2024/01/15 16:42:58;;;;;;;6.63;2.15;;;;;;;;;;4902462;29;20052;-82
2024/01/15 16:45:24;;;;;;;3.85;1.80;;;;;;;;;;4896084;29;20543;-82
2024/01/15 16:47:50;;;;;;;2.22;1.40;;;;;;;;;;4912705;29;20111;-81
2024/01/15 16:50:16;;;;;;;7.35;2.25;;;;;;;;;;4914186;29;20032;-81
2024/01/15 16:52:42;;;;;;;3.05;1.40;;;;;;;;;;4904125;29;20053;-81
2024/01/15 16:55:08;;;;;;;9.77;3.47;;;;;;;;;;4902036;29;20052;-80
2024/01/15 16:57:34;;;;;;;5.13;2.92;;;;;;;;;;4914494;29;20120;-81
2024/01/15 17:00:00;;;;;;;2.50;1.38;;;;;;;;;;4903820;29;20037;-81
2024/01/15 17:02:26;;;;;;;5.25;4.03;;;;;;;;;;4911542;29;21040;-82
2024/01/15 17:04:52;;;;;;;7.75;2.60;;;;;;;;;;4908063;29;20038;-81
2024/01/15 17:07:18;;;;;;;7.47;2.42;;;;;;;;;;4914556;29;20059;-81
2024/01/15 17:09:44;;;;;;;5.38;2.85;;;;;;;;;;4912505;29;20108;-80
2024/01/15 17:12:10;;;;;;;10.90;3.17;;;;;;;;;;4913660;29;20111;-81
2024/01/15 17:14:36;;;;;;;7.28;3.92;;;;;;;;;;4914912;29;20755;-84
2024/01/15 17:17:02;;;;;;;16.65;5.78;;;;;;;;;;4895398;29;20051;-80
2024/01/15 17:19:28;;;;;;;16.95;3.90;;;;;;;;;;4905738;29;20403;-82
2024/01/15 17:21:54;;;;;;;7.22;3.58;;;;;;;;;;4897048;29;20380;-81
2024/01/15 17:24:21;;;;;;;7.30;4.60;;;;;;;;;;4894672;29;20039;-82
2024/01/15 17:26:47;;;;;;;9.48;3.05;;;;;;;;;;4904950;29;20067;-82
2024/01/15 17:29:13;;;;;;;19.05;3.78;;;;;;;;;;4893679;29;20483;-84
2024/01/15 17:31:42;;;;;;;5.47;3.75;;;;;;;;;;4888880;29;20048;-85
2024/01/15 17:34:09;;;;;;;6.32;3.72;;;;;;;;;;4904069;29;20135;-81
2024/01/15 17:36:35;;;;;;;4.68;2.38;;;;;;;;;;4908997;29;20771;-82
2024/01/15 17:39:02;;;;;;;9.35;3.97;;;;;;;;;;4901077;29;20063;-81
2024/01/15 17:41:28;;;;;;;8.70;4.78;;;;;;;;;;4903224;29;20071;-82
2024/01/15 17:43:54;;;;;;;5.63;3.78;;;;;;;;;;4893914;29;20769;-81
2024/01/15 17:46:20;;;;;;;6.90;3.72;;;;;;;;;;4894833;29;20050;-80
2024/01/15 17:48:47;;;;;;;8.23;4.93;;;;;;;;;;4909455;29;20394;-80
2024/01/15 17:51:17;;;;;;;9.82;3.35;;;;;;;;;;4904861;29;20052;-81
2024/01/15 17:53:43;;;;;;;9.68;3.55;;;;;;;;;;4908074;29;20475;-81
2024/01/15 17:56:09;;;;;;;10.52;5.38;;;;;;;;;;4888760;29;20494;-81
2024/01/15 17:58:35;;;;;;;5.40;3.65;;;;;;;;;;4899677;29;20067;-81
2024/01/15 18:01:02;;;;;;;5.03;3.70;;;;;;;;;;4887850;29;20483;-81
2024/01/15 18:03:28;;;;;;;8.20;5.10;;;;;;;;;;4910631;29;20060;-81
2024/01/15 18:05:54;;;;;;;11.38;6.10;;;;;;;;;;4883898;29;20051;-81
2024/01/15 18:08:21;;;;;;;17.48;7.80;;;;;;;;;;4904731;29;20059;-81
2024/01/15 18:10:47;;;;;;;20.33;9.80;;;;;;;;;;4906073;29;20451;-81
2024/01/15 18:13:13;;;;;;;15.02;4.72;;;;;;;;;;4900852;29;20044;-81
2024/01/15 18:15:40;;;;;;;8.05;4.82;;;;;;;;;;4888372;29;20410;-81
2024/01/15 18:18:06;;;;;;;15.52;6.22;;;;;;;;;;4906792;29;20056;-81
2024/01/15 18:20:32;;;;;;;11.02;6.00;;;;;;;;;;4895988;29;20127;-80
2024/01/15 18:22:58;;;;;;;13.70;4.97;;;;;;;;;;4908295;29;20126;-81
2024/01/15 18:25:24;;;;;;;12.43;5.70;;;;;;;;;;4906691;29;20043;-81
2024/01/15 18:27:51;;;;;;;9.85;4.55;;;;;;;;;;4908605;29;20052;-79
2024/01/15 18:30:17;;;;;;;8.13;3.55;;;;;;;;;;4903190;29;20033;-80
2024/01/15 18:32:43;;;;;;;8.55;4.88;;;;;;;;;;4903072;29;20047;-84
2024/01/15 18:35:09;;;;;;;10.90;5.20;;;;;;;;;;4910377;29;20113;-82
2024/01/15 18:37:35;;;;;;;10.05;4.43;;;;;;;;;;4890179;29;20503;-81
2024/01/15 18:40:01;;;;;;;4.57;2.40;;;;;;;;;;4914471;29;20043;-81
2024/01/15 18:42:28;;;;;;;6.90;3.55;;;;;;;;;;4891626;29;20142;-81
2024/01/15 18:44:54;;;;;;;3.80;2.90;;;;;;;;;;4908446;29;20036;-81
2024/01/15 18:47:20;;;;;;;4.50;2.25;;;;;;;;;;4911765;29;20133;-81
2024/01/15 18:49:46;;;;;;;7.35;3.05;;;;;;;;;;4914761;29;20063;-81
2024/01/15 18:52:14;;;;;;;6.07;3.30;;;;;;;;;;4908197;29;20075;-82
2024/01/15 18:54:40;;;;;;;6.85;2.38;;;;;;;;;;4916638;29;20072;-82
2024/01/15 18:57:06;;;;;;;4.97;2.78;;;;;;;;;;4916521;29;20096;-81
2024/01/15 18:59:34;;;;;;;8.48;2.05;;;;;;;;;;4899248;29;20087;-81
2024/01/15 19:02:00;;;;;;;5.95;3.05;;;;;;;;;;4893365;29;20048;-83
2024/01/15 19:04:26;;;;;;;12.45;3.75;;;;;;;;;;4893414;29;20036;-81
2024/01/15 19:06:52;;;;;;;9.88;3.58;;;;;;;;;;4913527;29;20044;-81
2024/01/15 19:09:19;;;;;;;6.07;3.35;;;;;;;;;;4912590;29;20071;-81
2024/01/15 19:11:45;;;;;;;3.28;2.17;;;;;;;;;;4912692;29;20048;-80
2024/01/15 19:14:11;;;;;;;7.72;2.85;;;;;;;;;;4913673;29;20089;-79
2024/01/15 19:16:37;;;;;;;9.77;3.10;;;;;;;;;;4891613;29;20056;-81
2024/01/15 19:19:03;;;;;;;12.02;5.80;;;;;;;;;;4907292;29;20037;-80
2024/01/15 19:21:30;;;;;;;12.02;4.25;;;;;;;;;;4909276;29;20741;-79
2024/01/15 19:23:56;;;;;;;13.85;4.43;;;;;;;;;;4916529;29;20045;-80
2024/01/15 19:26:22;;;;;;;9.88;3.35;;;;;;;;;;4902098;29;20055;-79
2024/01/15 19:28:48;;;;;;;6.93;3.55;;;;;;;;;;4903092;29;20120;-80
2024/01/15 19:31:14;;;;;;;11.68;4.88;;;;;;;;;;4912283;29;20072;-80
2024/01/15 19:33:40;;;;;;;4.22;2.42;;;;;;;;;;4912370;29;20073;-80
2024/01/15 19:36:07;;;;;;;6.85;2.85;;;;;;;;;;4911366;29;20056;-80
2024/01/15 19:38:33;;;;;;;5.25;2.35;;;;;;;;;;4907814;29;20103;-80
2024/01/15 19:40:59;;;;;;;7.15;4.90;;;;;;;;;;4909249;29;20062;-80
2024/01/15 19:43:25;;;;;;;10.93;5.80;;;;;;;;;;4909169;29;20120;-80
2024/01/15 19:45:51;;;;;;;6.43;4.60;;;;;;;;;;4892864;29;20142;-81
2024/01/15 19:48:20;;;;;;;9.82;3.78;;;;;;;;;;4906601;29;20040;-80
2024/01/15 19:50:46;;;;;;;8.35;5.13;;;;;;;;;;4905267;29;20040;-80
2024/01/15 19:53:12;;;;;;;9.82;4.68;;;;;;;;;;4910104;29;20051;-80
2024/01/15 19:55:38;;;;;;;10.52;3.22;;;;;;;;;;4905921;29;20398;-80
2024/01/15 19:58:04;;;;;;;9.40;4.00;;;;;;;;;;4912852;29;20497;-80
2024/01/15 20:00:30;;;;;;;5.80;4.07;;;;;;;;;;4914588;29;20056;-79
2024/01/15 20:02:56;;;;;;;6.25;3.05;;;;;;;;;;4905977;29;20087;-80
2024/01/15 20:05:23;;;;;;;9.68;4.07;;;;;;;;;;4914473;29;20044;-80
2024/01/15 20:07:49;;;;;;;17.33;8.95;;;;;;;;;;4906751;29;20070;-80
2024/01/15 20:10:15;;;;;;;8.05;3.45;;;;;;;;;;4903299;29;20060;-80
2024/01/15 20:12:41;;;;;;;6.90;4.38;;;;;;;;;;4902920;29;20388;-80
2024/01/15 20:15:07;;;;;;;9.48;4.38;;;;;;;;;;4913079;29;20047;-80
2024/01/15 20:17:33;;;;;;;4.20;2.00;;;;;;;;;;4907601;29;20051;-80
2024/01/15 20:20:00;;;;;;;2.45;1.85;;;;;;;;;;4909122;29;20048;-80
2024/01/15 20:22:26;;;;;;;3.38;1.45;;;;;;;;;;4912552;29;20079;-80
2024/01/15 20:24:52;;;;;;;8.15;2.83;;;;;;;;;;4908081;29;20063;-80
2024/01/15 20:27:18;;;;;;;3.10;1.60;;;;;;;;;;4911341;29;20426;-80
2024/01/15 20:29:44;;;;;;;2.33;1.63;;;;;;;;;;4904574;29;20103;-80
2024/01/15 20:32:11;;;;;;;5.28;1.60;;;;;;;;;;4912885;29;20052;-80
2024/01/15 20:34:37;;;;;;;2.53;1.55;;;;;;;;;;4893079;29;20482;-80
2024/01/15 20:37:03;;;;;;;1.45;1.13;;;;;;;;;;4914859;29;20093;-80
2024/01/15 20:39:29;;;;;;;3.60;1.17;;;;;;;;;;4913389;29;20507;-80
2024/01/15 20:41:55;;;;;;;2.17;1.30;;;;;;;;;;4915117;29;20439;-80
2024/01/15 20:44:21;;;;;;;3.60;1.65;;;;;;;;;;4905045;29;20040;-79
2024/01/15 20:46:49;;;;;;;3.05;2.03;;;;;;;;;;4911719;29;20044;-80
2024/01/15 20:49:15;;;;;;;4.35;2.35;;;;;;;;;;4911795;29;20056;-80
2024/01/15 20:51:41;;;;;;;3.30;1.80;;;;;;;;;;4910380;29;20427;-80
2024/01/15 20:54:07;;;;;;;4.10;1.77;;;;;;;;;;4906801;29;20032;-80
2024/01/15 20:56:33;;;;;;;4.72;1.73;;;;;;;;;;4910240;29;20394;-80
2024/01/15 20:58:59;;;;;;;2.33;0.98;;;;;;;;;;4909841;29;20072;-80
2024/01/15 21:01:25;;;;;;;0.95;0.60;;;;;;;;;;4913797;29;20067;-80
2024/01/15 21:03:51;;;;;;;5.15;1.25;;;;;;;;;;4904932;29;20087;-80
2024/01/15 21:06:17;;;;;;;1.48;0.47;;;;;;;;;;4911662;29;20063;-80
2024/01/15 21:08:45;;;;;;;6.10;2.00;;;;;;;;;;4913589;29;20100;-79
2024/01/15 21:11:13;;;;;;;2.03;0.75;;;;;;;;;;4907861;29;20051;-80
2024/01/15 21:13:39;;;;;;;4.45;1.55;;;;;;;;;;4908137;29;20067;-80
2024/01/15 21:16:06;;;;;;;1.15;0.55;;;;;;;;;;4893313;29;20471;-80
2024/01/15 21:18:32;;;;;;;1.92;1.08;;;;;;;;;;4906147;29;20139;-80
2024/01/15 21:20:58;;;;;;;1.13;0.60;;;;;;;;;;4913052;29;20087;-80
2024/01/15 21:23:25;;;;;;;0.63;0.28;;;;;;;;;;4907207;29;20096;-80
2024/01/15 21:25:51;;;;;;;1.48;0.82;;;;;;;;;;4884387;29;20127;-80
2024/01/15 21:28:17;;;;;;;0.57;0.47;;;;;;;;;;4896307;29;20431;-80
2024/01/15 21:30:43;;;;;;;2.03;1.17;;;;;;;;;;4880250;29;20052;-80
2024/01/15 21:33:10;;;;;;;0.98;0.57;;;;;;;;;;4903333;29;20047;-80
2024/01/15 21:35:36;;;;;;;0.60;0.30;;;;;;;;;;4887900;29;20044;-80
2024/01/15 21:38:02;;;;;;;1.17;0.75;;;;;;;;;;4899640;29;20823;-80
2024/01/15 21:40:28;;;;;;;0.30;0.30;;;;;;;;;;4877963;29;20176;-81
2024/01/15 21:42:54;;;;;;;0.63;0.50;;;;;;;;;;4909460;29;20095;-79
2024/01/15 21:45:20;;;;;;;1.63;0.93;;;;;;;;;;4912907;29;20479;-80
2024/01/15 21:47:46;;;;;;;2.50;0.93;;;;;;;;;;4903051;29;20040;-80
2024/01/15 21:50:12;;;;;;;1.55;0.77;;;;;;;;;;4912258;29;20036;-80
2024/01/15 21:52:38;;;;;;;3.38;1.20;;;;;;;;;;4902784;29;20048;-80
2024/01/15 21:55:09;;;;;;;0.95;0.75;;;;;;;;;;4896279;29;20123;-80
2024/01/15 21:57:36;;;;;;;1.05;0.88;;;;;;;;;;4907193;29;20056;-80
2024/01/15 22:00:06;;;;;;;2.97;0.98;;;;;;;;;;4905093;29;20040;-80
2024/01/15 22:02:36;;;;;;;3.35;1.33;;;;;;;;;;4912374;29;20052;-80
2024/01/15 22:05:03;;;;;;;3.83;1.60;;;;;;;;;;4898847;29;20039;-81
2024/01/15 22:07:29;;;;;;;2.42;1.48;;;;;;;;;;4900022;29;20406;-81
2024/01/15 22:09:55;;;;;;;3.80;2.08;;;;;;;;;;4912229;29;20442;-80
2024/01/15 22:12:21;;;;;;;4.95;1.77;;;;;;;;;;4894287;29;20055;-80
2024/01/15 22:14:47;;;;;;;1.83;0.85;;;;;;;;;;4911654;29;20064;-80
2024/01/15 22:17:13;;;;;;;3.53;0.77;;;;;;;;;;4891477;29;20048;-80
2024/01/15 22:19:39;;;;;;;6.40;1.40;;;;;;;;;;4906787;29;20127;-80
2024/01/15 22:22:05;;;;;;;2.05;1.38;;;;;;;;;;4902124;29;20439;-80
2024/01/15 22:24:31;;;;;;;1.17;0.75;;;;;;;;;;4907947;29;20032;-80
2024/01/15 22:26:57;;;;;;;3.15;1.17;;;;;;;;;;4904679;29;20051;-80
2024/01/15 22:29:23;;;;;;;5.13;1.30;;;;;;;;;;4898167;29;20047;-80
2024/01/15 22:31:49;;;;;;;1.83;0.77;;;;;;;;;;4901946;29;20120;-80
2024/01/15 22:34:17;;;;;;;2.88;1.67;;;;;;;;;;4904159;29;20085;-80
2024/01/15 22:36:43;;;;;;;3.15;1.38;;;;;;;;;;4902244;29;20506;-80
2024/01/15 22:39:09;;;;;;;2.03;1.05;;;;;;;;;;4905891;29;20061;-80
2024/01/15 22:41:35;;;;;;;6.40;1.23;;;;;;;;;;4903512;29;20045;-80
2024/01/15 22:44:01;;;;;;;7.95;2.25;;;;;;;;;;4908680;29;20040;-80
2024/01/15 22:46:27;;;;;;;4.10;1.88;;;;;;;;;;4911807;29;20390;-80
2024/01/15 22:48:53;;;;;;;4.10;2.25;;;;;;;;;;4905557;29;20044;-80
2024/01/15 22:51:19;;;;;;;3.17;1.90;;;;;;;;;;4910321;29;20586;-80
2024/01/15 22:53:45;;;;;;;4.75;1.98;;;;;;;;;;4908240;29;20045;-80
2024/01/15 22:56:11;;;;;;;3.60;1.60;;;;;;;;;;4909857;29;20050;-80
2024/01/15 22:58:37;;;;;;;3.47;1.88;;;;;;;;;;4912227;29;20044;-80
2024/01/15 23:01:03;;;;;;;4.05;1.77;;;;;;;;;;4910214;29;20543;-80
2024/01/15 23:03:30;;;;;;;4.55;2.85;;;;;;;;;;4911088;29;20075;-80
2024/01/15 23:05:56;;;;;;;3.72;1.15;;;;;;;;;;4881649;29;20048;-80
2024/01/15 23:08:22;;;;;;;1.38;0.90;;;;;;;;;;4910065;29;20503;-80